Terminal Aerodrome Forecast
Issued by NWS

Home | Current Version | Previous Version | Text Only | Print | Product List | Glossary On
Versions: 1 2 3 4 5 6 7 8 9 10 11 12 13 14 15 16 17 18 19 20 21
000
FTUS42 KFFC 291131
TAFFTY
TAF
KFTY 291131Z 2912/3012 00000KT P6SM SKC
     FM291400 11007KT P6SM SKC
     FM291700 15008KT P6SM SKC
     FM292000 18008KT P6SM SCT050
     FM300200 17008KT P6SM BKN035
     FM300800 20007KT P6SM OVC025
     FM301100 22010KT P6SM OVC012=

USA.gov is the U.S. government's official web portal to all federal, state and local government web resources and services.